FredonyerEastRWIS Atmospheric Data: 08/01/2020 Summary  Detailed Graphs  Station List

  Temperature     Wind Precipitation Visibility
Timestamp Air Wet
Bulb
Dew-
point
24-hr
Max
24-hr
Min
Relative
Humidity
Atmospheric
Pressure
Avg
Speed
Avg
Dir
Spot
Speed
Spot
Dir
Max
Speed
Max
Dir
  Rate Situation Start End 1 hr 3 hr 6 hr 12 hr 24 hr   Situation
Date Time °F °F °F °F °F % in Hg mph ° mph ° mph ° Y/N in/hr text Date Time Date Time in in in in in mi text
08/01/2020 12:08 AM 53.06 42.80 29.66 87.98 43.70 40.0 Not Reported 0.67 N 0.22 N 2.01 NE No 0.000 No Precipitation 07/26/2020 07:04 PM 07/26/2020 07:46 PM 0.000 0.000 0.000 0.000 0.000 Not Reported Not Reported
08/01/2020 12:23 AM 52.34 42.62 30.02 87.98 43.70 42.0 Not Reported 1.12 W 0.89 NW 1.34 NW No 0.000 No Precipitation 07/26/2020 07:04 PM 07/26/2020 07:46 PM 0.000 0.000 0.000 0.000 0.000 Not Reported Not Reported
08/01/2020 12:38 AM 50.90 41.90 30.38 87.98 45.14 44.0 Not Reported 0.00 N 0.00 SW 0.22 NW No 0.000 No Precipitation 07/26/2020 07:04 PM 07/26/2020 07:46 PM 0.000 0.000 0.000 0.000 0.000 Not Reported Not Reported
08/01/2020 12:53 AM 50.00 41.36 30.02 87.98 45.14 45.0 Not Reported 0.67 NW 0.67 NW 1.12 NW No 0.000 No Precipitation 07/26/2020 07:04 PM 07/26/2020 07:46 PM 0.000 0.000 0.000 0.000 0.000 Not Reported Not Reported
08/01/2020 01:08 AM 49.46 41.00 29.84 87.98 45.14 45.0 Not Reported 0.00 N 0.00 N 0.67 N No 0.000 No Precipitation 07/26/2020 07:04 PM 07/26/2020 07:46 PM 0.000 0.000 0.000 0.000 0.000 Not Reported Not Reported
08/01/2020 01:24 AM 49.82 41.00 29.48 87.98 45.14 45.0 Not Reported 0.45 N 0.22 NW 1.34 N No 0.000 No Precipitation 07/26/2020 07:04 PM 07/26/2020 07:46 PM 0.000 0.000 0.000 0.000 0.000 Not Reported Not Reported
08/01/2020 01:38 AM 49.46 41.00 30.02 87.98 45.14 46.0 Not Reported 0.22 NW 0.67 NW 1.57 NW No 0.000 No Precipitation 07/26/2020 07:04 PM 07/26/2020 07:46 PM 0.000 0.000 0.000 0.000 0.000 Not Reported Not Reported
08/01/2020 01:53 AM 48.74 41.00 30.56 87.98 45.14 48.0 Not Reported 0.00 SE 0.00 SE 1.12 W No 0.000 No Precipitation 07/26/2020 07:04 PM 07/26/2020 07:46 PM 0.000 0.000 0.000 0.000 0.000 Not Reported Not Reported
08/01/2020 02:09 AM 47.66 40.10 30.02 87.98 45.14 49.0 Not Reported 0.00 N 0.00 NW 0.00 NW No 0.000 No Precipitation 07/26/2020 07:04 PM 07/26/2020 07:46 PM 0.000 0.000 0.000 0.000 0.000 Not Reported Not Reported
08/01/2020 02:23 AM 47.66 40.28 30.20 87.98 45.14 50.0 Not Reported 0.00 N 0.00 NW 0.45 NW No 0.000 No Precipitation 07/26/2020 07:04 PM 07/26/2020 07:46 PM 0.000 0.000 0.000 0.000 0.000 Not Reported Not Reported
08/01/2020 02:38 AM 47.12 39.92 30.38 87.98 45.14 51.0 Not Reported 0.00 N 0.00 NW 0.00 NW No 0.000 No Precipitation 07/26/2020 07:04 PM 07/26/2020 07:46 PM 0.000 0.000 0.000 0.000 0.000 Not Reported Not Reported
08/01/2020 02:53 AM 46.58 39.56 30.38 87.98 45.14 52.0 Not Reported 0.00 W 0.00 W 0.00 W No 0.000 No Precipitation 07/26/2020 07:04 PM 07/26/2020 07:46 PM 0.000 0.000 0.000 0.000 0.000 Not Reported Not Reported
08/01/2020 03:08 AM 47.48 39.92 30.02 87.98 45.14 50.0 Not Reported 1.34 NE 1.12 NE 2.01 E No 0.000 No Precipitation 07/26/2020 07:04 PM 07/26/2020 07:46 PM 0.000 0.000 0.000 0.000 0.000 Not Reported Not Reported
08/01/2020 03:23 AM 48.02 40.28 30.20 87.98 45.14 49.0 Not Reported 0.89 N 0.89 NW 1.12 N No 0.000 No Precipitation 07/26/2020 07:04 PM 07/26/2020 07:46 PM 0.000 0.000 0.000 0.000 0.000 Not Reported Not Reported
08/01/2020 03:38 AM 47.48 39.92 30.02 87.98 45.14 49.0 Not Reported 0.00 N 0.00 E 0.45 E No 0.000 No Precipitation 07/26/2020 07:04 PM 07/26/2020 07:46 PM 0.000 0.000 0.000 0.000 0.000 Not Reported Not Reported
08/01/2020 03:53 AM 46.58 39.74 30.74 87.98 45.14 53.0 Not Reported 0.67 NW 0.00 NW 2.68 NW No 0.000 No Precipitation 07/26/2020 07:04 PM 07/26/2020 07:46 PM 0.000 0.000 0.000 0.000 0.000 Not Reported Not Reported
08/01/2020 04:09 AM 45.86 39.38 31.10 87.98 45.14 55.0 Not Reported 0.22 NW 0.00 NW 1.79 NW No 0.000 No Precipitation 07/26/2020 07:04 PM 07/26/2020 07:46 PM 0.000 0.000 0.000 0.000 0.000 Not Reported Not Reported
08/01/2020 04:23 AM 45.32 39.20 31.28 87.98 45.14 57.0 Not Reported 0.00 N 0.00 N 0.67 W No 0.000 No Precipitation 07/26/2020 07:04 PM 07/26/2020 07:46 PM 0.000 0.000 0.000 0.000 0.000 Not Reported Not Reported
08/01/2020 04:38 AM 45.14 39.02 30.92 87.98 45.14 56.0 Not Reported 1.57 NW 0.89 W 1.79 NW No 0.000 No Precipitation 07/26/2020 07:04 PM 07/26/2020 07:46 PM 0.000 0.000 0.000 0.000 0.000 Not Reported Not Reported
08/01/2020 04:53 AM 45.14 39.20 31.10 87.98 45.14 57.0 Not Reported 0.00 N 0.22 NW 0.22 NW No 0.000 No Precipitation 07/26/2020 07:04 PM 07/26/2020 07:46 PM 0.000 0.000 0.000 0.000 0.000 Not Reported Not Reported
08/01/2020 05:08 AM 45.14 39.02 30.92 87.98 45.14 56.0 Not Reported 0.22 NW 0.00 NW 1.57 NW No 0.000 No Precipitation 07/26/2020 07:04 PM 07/26/2020 07:46 PM 0.000 0.000 0.000 0.000 0.000 Not Reported Not Reported
08/01/2020 05:23 AM 45.14 39.02 30.92 87.98 45.14 56.0 Not Reported 0.89 W 0.45 W 2.24 NW No 0.000 No Precipitation 07/26/2020 07:04 PM 07/26/2020 07:46 PM 0.000 0.000 0.000 0.000 0.000 Not Reported Not Reported
08/01/2020 05:38 AM 44.96 38.84 30.92 87.98 44.78 57.0 Not Reported 0.67 NW 0.00 NW 1.34 NW No 0.000 No Precipitation 07/26/2020 07:04 PM 07/26/2020 07:46 PM 0.000 0.000 0.000 0.000 0.000 Not Reported Not Reported
08/01/2020 05:53 AM 45.14 39.02 30.92 87.98 44.78 56.0 Not Reported 0.00 W 0.22 N 1.12 E No 0.000 No Precipitation 07/26/2020 07:04 PM 07/26/2020 07:46 PM 0.000 0.000 0.000 0.000 0.000 Not Reported Not Reported
08/01/2020 06:09 AM 44.42 38.48 30.38 87.98 44.42 57.0 Not Reported 0.89 NW 0.89 NW 1.34 N No 0.000 No Precipitation 07/26/2020 07:04 PM 07/26/2020 07:46 PM 0.000 0.000 0.000 0.000 0.000 Not Reported Not Reported
08/01/2020 06:23 AM 44.42 38.48 30.38 87.98 44.24 57.0 Not Reported 0.22 NW 0.00 NW 0.67 NW No 0.000 No Precipitation 07/26/2020 07:04 PM 07/26/2020 07:46 PM 0.000 0.000 0.000 0.000 0.000 Not Reported Not Reported
08/01/2020 06:38 AM 45.14 39.20 31.46 87.98 44.24 58.0 Not Reported 0.89 N 0.45 N 1.57 NW No 0.000 No Precipitation 07/26/2020 07:04 PM 07/26/2020 07:46 PM 0.000 0.000 0.000 0.000 0.000 Not Reported Not Reported
08/01/2020 06:53 AM 46.40 40.28 32.36 87.98 44.24 58.0 Not Reported 0.67 N 0.67 NW 1.34 N No 0.000 No Precipitation 07/26/2020 07:04 PM 07/26/2020 07:46 PM 0.000 0.000 0.000 0.000 0.000 Not Reported Not Reported
08/01/2020 07:09 AM 47.84 41.36 33.62 87.98 44.24 56.0 Not Reported 1.12 N 0.45 NW 1.34 NW No 0.000 No Precipitation 07/26/2020 07:04 PM 07/26/2020 07:46 PM 0.000 0.000 0.000 0.000 0.000 Not Reported Not Reported
08/01/2020 07:23 AM 50.36 43.16 34.52 87.98 44.24 54.0 Not Reported 0.00 N 0.00 S 0.67 NW No 0.000 No Precipitation 07/26/2020 07:04 PM 07/26/2020 07:46 PM 0.000 0.000 0.000 0.000 0.000 Not Reported Not Reported
08/01/2020 07:39 AM 53.06 44.78 35.60 87.98 44.24 50.0 Not Reported 0.00 N 0.67 NE 1.57 N No 0.000 No Precipitation 07/26/2020 07:04 PM 07/26/2020 07:46 PM 0.000 0.000 0.000 0.000 0.000 Not Reported Not Reported
08/01/2020 07:53 AM 55.58 46.22 35.96 87.98 44.24 47.0 Not Reported 0.00 NE 0.00 W 0.45 NE No 0.000 No Precipitation 07/26/2020 07:04 PM 07/26/2020 07:46 PM 0.000 0.000 0.000 0.000 0.000 Not Reported Not Reported
08/01/2020 08:08 AM 58.82 47.48 35.24 87.98 44.24 41.0 Not Reported 2.68 SE 2.68 SE 2.91 SE No 0.000 No Precipitation 07/26/2020 07:04 PM 07/26/2020 07:46 PM 0.000 0.000 0.000 0.000 0.000 Not Reported Not Reported
08/01/2020 08:23 AM 63.14 50.18 37.04 87.98 44.24 37.0 Not Reported 0.45 E 0.00 SE 1.57 S No 0.000 No Precipitation 07/26/2020 07:04 PM 07/26/2020 07:46 PM 0.000 0.000 0.000 0.000 0.000 Not Reported Not Reported
08/01/2020 08:38 AM 66.02 51.08 36.14 87.98 44.24 33.0 Not Reported 1.57 SE 1.57 SE 2.24 E No 0.000 No Precipitation 07/26/2020 07:04 PM 07/26/2020 07:46 PM 0.000 0.000 0.000 0.000 0.000 Not Reported Not Reported
08/01/2020 08:53 AM 68.72 51.44 33.62 87.98 44.24 27.0 Not Reported 1.34 SE 1.12 NE 2.46 E No 0.000 No Precipitation 07/26/2020 07:04 PM 07/26/2020 07:46 PM 0.000 0.000 0.000 0.000 0.000 Not Reported Not Reported
08/01/2020 09:08 AM 69.98 51.44 31.46 87.98 44.24 23.0 Not Reported 2.24 SE 3.36 SE 3.36 SE No 0.000 No Precipitation 07/26/2020 07:04 PM 07/26/2020 07:46 PM 0.000 0.000 0.000 0.000 0.000 Not Reported Not Reported
08/01/2020 09:23 AM 72.14 51.80 29.66 87.98 44.24 20.0 Not Reported 3.58 SE 3.36 S 4.25 SE No 0.000 No Precipitation 07/26/2020 07:04 PM 07/26/2020 07:46 PM 0.000 0.000 0.000 0.000 0.000 Not Reported Not Reported
08/01/2020 09:38 AM 74.12 51.26 23.36 87.98 44.24 14.0 Not Reported 5.14 SW 4.70 S 7.16 SW No 0.000 No Precipitation 07/26/2020 07:04 PM 07/26/2020 07:46 PM 0.000 0.000 0.000 0.000 0.000 Not Reported Not Reported
08/01/2020 09:53 AM 75.02 50.90 19.58 87.98 44.24 12.0 Not Reported 1.34 S 4.03 SW 7.38 SW No 0.000 No Precipitation 07/26/2020 07:04 PM 07/26/2020 07:46 PM 0.000 0.000 0.000 0.000 0.000 Not Reported Not Reported
08/01/2020 10:08 AM 76.46 51.62 19.94 87.98 44.24 11.0 Not Reported 3.58 NW 1.79 SW 7.38 W No 0.000 No Precipitation 07/26/2020 07:04 PM 07/26/2020 07:46 PM 0.000 0.000 0.000 0.000 0.000 Not Reported Not Reported
08/01/2020 10:23 AM 77.18 51.62 18.68 87.98 44.24 10.0 Not Reported 3.13 S 2.24 SE 6.71 NW No 0.000 No Precipitation 07/26/2020 07:04 PM 07/26/2020 07:46 PM 0.000 0.000 0.000 0.000 0.000 Not Reported Not Reported
08/01/2020 10:38 AM 77.54 51.44 16.16 87.98 44.24 9.0 Not Reported 3.80 SW 4.03 NW 8.05 SW No 0.000 No Precipitation 07/26/2020 07:04 PM 07/26/2020 07:46 PM 0.000 0.000 0.000 0.000 0.000 Not Reported Not Reported
08/01/2020 10:53 AM 77.36 51.44 17.42 87.98 44.24 10.0 Not Reported 4.92 S 2.01 E 8.95 NW No 0.000 No Precipitation 07/26/2020 07:04 PM 07/26/2020 07:46 PM 0.000 0.000 0.000 0.000 0.000 Not Reported Not Reported
08/01/2020 11:08 AM 78.26 51.80 16.70 87.98 44.24 9.0 Not Reported 3.80 SE 6.49 SE 7.83 SW No 0.000 No Precipitation 07/26/2020 07:04 PM 07/26/2020 07:46 PM 0.000 0.000 0.000 0.000 0.000 Not Reported Not Reported
08/01/2020 11:23 AM 78.08 51.80 17.24 87.98 44.24 10.0 Not Reported 7.16 NW 6.71 W 9.62 NW No 0.000 No Precipitation 07/26/2020 07:04 PM 07/26/2020 07:46 PM 0.000 0.000 0.000 0.000 0.000 Not Reported Not Reported
08/01/2020 11:38 AM 79.34 52.34 16.70 87.98 44.24 9.0 Not Reported 2.01 W 6.49 SW 7.61 SE No 0.000 No Precipitation 07/26/2020 07:04 PM 07/26/2020 07:46 PM 0.000 0.000 0.000 0.000 0.000 Not Reported Not Reported
08/01/2020 11:53 AM 79.88 52.16 14.90 87.98 44.24 8.0 Not Reported 5.37 W 2.91 W 8.28 SW No 0.000 No Precipitation 07/26/2020 07:04 PM 07/26/2020 07:46 PM 0.000 0.000 0.000 0.000 0.000 Not Reported Not Reported
08/01/2020 12:08 PM 79.88 51.98 14.00 87.98 44.24 8.0 Not Reported 4.03 W 8.05 SW 8.28 SW No 0.000 No Precipitation 07/26/2020 07:04 PM 07/26/2020 07:46 PM 0.000 0.000 0.000 0.000 0.000 Not Reported Not Reported
08/01/2020 12:23 PM 81.14 52.34 11.66 87.98 44.24 7.0 Not Reported 5.37 W 4.03 S 9.17 S No 0.000 No Precipitation 07/26/2020 07:04 PM 07/26/2020 07:46 PM 0.000 0.000 0.000 0.000 0.000 Not Reported Not Reported
08/01/2020 12:38 PM 80.78 52.70 15.26 87.98 44.24 8.0 Not Reported 5.37 W 0.45 SE 7.16 SW No 0.000 No Precipitation 07/26/2020 07:04 PM 07/26/2020 07:46 PM 0.000 0.000 0.000 0.000 0.000 Not Reported Not Reported
08/01/2020 12:53 PM 82.58 53.24 14.00 87.98 44.24 7.0 Not Reported 6.04 SW 6.26 SE 9.17 W No 0.000 No Precipitation 07/26/2020 07:04 PM 07/26/2020 07:46 PM 0.000 0.000 0.000 0.000 0.000 Not Reported Not Reported
08/01/2020 01:09 PM 82.76 53.06 12.38 87.98 44.24 6.0 Not Reported 6.49 S 7.83 SW 8.95 NW No 0.000 No Precipitation 07/26/2020 07:04 PM 07/26/2020 07:46 PM 0.000 0.000 0.000 0.000 0.000 Not Reported Not Reported
08/01/2020 01:23 PM 83.30 53.42 13.28 87.98 44.24 7.0 Not Reported 6.93 SE 4.70 S 10.96 S No 0.000 No Precipitation 07/26/2020 07:04 PM 07/26/2020 07:46 PM 0.000 0.000 0.000 0.000 0.000 Not Reported Not Reported
08/01/2020 01:38 PM 84.20 54.32 16.52 87.98 44.24 7.0 Not Reported 5.14 SE 8.05 S 9.62 SW No 0.000 No Precipitation 07/26/2020 07:04 PM 07/26/2020 07:46 PM 0.000 0.000 0.000 0.000 0.000 Not Reported Not Reported
08/01/2020 01:53 PM 82.22 53.42 15.44 87.98 44.24 8.0 Not Reported 8.05 W 6.26 NW 11.18 W No 0.000 No Precipitation 07/26/2020 07:04 PM 07/26/2020 07:46 PM 0.000 0.000 0.000 0.000 0.000 Not Reported Not Reported
08/01/2020 02:08 PM 83.30 54.14 17.78 87.98 44.24 8.0 Not Reported 4.47 SW 4.25 SW 8.50 W No 0.000 No Precipitation 07/26/2020 07:04 PM 07/26/2020 07:46 PM 0.000 0.000 0.000 0.000 0.000 Not Reported Not Reported
08/01/2020 02:23 PM 83.48 53.78 14.72 87.98 44.24 7.0 Not Reported 4.03 SE 5.82 S 12.53 NW No 0.000 No Precipitation 07/26/2020 07:04 PM 07/26/2020 07:46 PM 0.000 0.000 0.000 0.000 0.000 Not Reported Not Reported
08/01/2020 02:38 PM 82.94 53.42 13.46 87.98 44.24 7.0 Not Reported 5.37 S 9.62 SW 9.62 SW No 0.000 No Precipitation 07/26/2020 07:04 PM 07/26/2020 07:46 PM 0.000 0.000 0.000 0.000 0.000 Not Reported Not Reported
08/01/2020 02:53 PM 82.40 53.78 17.42 87.98 44.24 8.0 Not Reported 2.68 W 9.17 S 10.29 W No 0.000 No Precipitation 07/26/2020 07:04 PM 07/26/2020 07:46 PM 0.000 0.000 0.000 0.000 0.000 Not Reported Not Reported
08/01/2020 03:09 PM 83.12 53.78 16.16 87.98 44.24 8.0 Not Reported 6.49 W 3.80 E 10.74 S No 0.000 No Precipitation 07/26/2020 07:04 PM 07/26/2020 07:46 PM 0.000 0.000 0.000 0.000 0.000 Not Reported Not Reported
08/01/2020 03:23 PM 83.30 54.32 18.50 87.80 44.24 8.0 Not Reported 3.36 W 4.47 W 7.16 S No 0.000 No Precipitation 07/26/2020 07:04 PM 07/26/2020 07:46 PM 0.000 0.000 0.000 0.000 0.000 Not Reported Not Reported
08/01/2020 03:38 PM 83.48 53.60 14.18 87.80 44.24 7.0 Not Reported 4.25 SW 6.26 SW 8.72 S No 0.000 No Precipitation 07/26/2020 07:04 PM 07/26/2020 07:46 PM 0.000 0.000 0.000 0.000 0.000 Not Reported Not Reported
08/01/2020 03:53 PM 83.48 54.32 17.78 87.80 44.24 8.0 Not Reported 6.04 SW 4.70 S 8.05 SW No 0.000 No Precipitation 07/26/2020 07:04 PM 07/26/2020 07:46 PM 0.000 0.000 0.000 0.000 0.000 Not Reported Not Reported
08/01/2020 04:08 PM 82.94 53.78 16.88 87.80 44.24 8.0 Not Reported 5.82 SW 3.36 SW 9.84 SW No 0.000 No Precipitation 07/26/2020 07:04 PM 07/26/2020 07:46 PM 0.000 0.000 0.000 0.000 0.000 Not Reported Not Reported
08/01/2020 04:23 PM 83.30 54.14 17.60 87.80 44.24 8.0 Not Reported 6.26 SW 5.14 SE 9.84 W No 0.000 No Precipitation 07/26/2020 07:04 PM 07/26/2020 07:46 PM 0.000 0.000 0.000 0.000 0.000 Not Reported Not Reported
08/01/2020 04:38 PM 83.84 54.32 17.24 87.80 44.24 8.0 Not Reported 4.47 W 3.13 NW 8.05 W No 0.000 No Precipitation 07/26/2020 07:04 PM 07/26/2020 07:46 PM 0.000 0.000 0.000 0.000 0.000 Not Reported Not Reported
08/01/2020 04:53 PM 84.74 54.68 17.78 86.54 44.24 8.0 Not Reported 4.47 W 6.93 S 6.93 S No 0.000 No Precipitation 07/26/2020 07:04 PM 07/26/2020 07:46 PM 0.000 0.000 0.000 0.000 0.000 Not Reported Not Reported
08/01/2020 05:09 PM 84.56 54.50 16.70 86.54 44.24 7.0 Not Reported 3.36 SW 6.49 W 7.61 NW No 0.000 No Precipitation 07/26/2020 07:04 PM 07/26/2020 07:46 PM 0.000 0.000 0.000 0.000 0.000 Not Reported Not Reported
08/01/2020 05:23 PM 84.02 54.50 17.60 85.64 44.24 8.0 Not Reported 5.59 S 6.26 S 7.61 S No 0.000 No Precipitation 07/26/2020 07:04 PM 07/26/2020 07:46 PM 0.000 0.000 0.000 0.000 0.000 Not Reported Not Reported
08/01/2020 05:39 PM 84.56 54.68 17.60 85.64 44.24 8.0 Not Reported 3.58 S 6.93 SW 7.38 S No 0.000 No Precipitation 07/26/2020 07:04 PM 07/26/2020 07:46 PM 0.000 0.000 0.000 0.000 0.000 Not Reported Not Reported
08/01/2020 05:53 PM 83.84 54.32 17.06 84.92 44.24 8.0 Not Reported 2.91 S 3.58 SE 6.49 SW No 0.000 No Precipitation 07/26/2020 07:04 PM 07/26/2020 07:46 PM 0.000 0.000 0.000 0.000 0.000 Not Reported Not Reported
08/01/2020 06:08 PM 83.30 54.32 18.50 84.92 44.24 8.0 Not Reported 4.47 SW 8.05 SW 8.05 SW No 0.000 No Precipitation 07/26/2020 07:04 PM 07/26/2020 07:46 PM 0.000 0.000 0.000 0.000 0.000 Not Reported Not Reported
08/01/2020 06:23 PM 82.58 53.96 18.86 84.92 44.24 9.0 Not Reported 5.82 S 2.24 SW 8.50 NW No 0.000 No Precipitation 07/26/2020 07:04 PM 07/26/2020 07:46 PM 0.000 0.000 0.000 0.000 0.000 Not Reported Not Reported
08/01/2020 06:38 PM 82.22 54.50 21.92 84.92 44.24 10.0 Not Reported 1.79 N 1.12 S 6.26 SW No 0.000 No Precipitation 07/26/2020 07:04 PM 07/26/2020 07:46 PM 0.000 0.000 0.000 0.000 0.000 Not Reported Not Reported
08/01/2020 06:53 PM 80.78 53.96 22.46 84.92 44.24 11.0 Not Reported 3.80 W 4.47 SW 10.29 NW No 0.000 No Precipitation 07/26/2020 07:04 PM 07/26/2020 07:46 PM 0.000 0.000 0.000 0.000 0.000 Not Reported Not Reported
08/01/2020 07:08 PM 80.06 53.96 24.08 84.92 44.24 12.0 Not Reported 4.03 W 2.46 E 8.50 W No 0.000 No Precipitation 07/26/2020 07:04 PM 07/26/2020 07:46 PM 0.000 0.000 0.000 0.000 0.000 Not Reported Not Reported
08/01/2020 07:23 PM 78.62 53.78 25.70 84.92 44.24 14.0 Not Reported 4.92 SW 1.57 W 6.26 SW No 0.000 No Precipitation 07/26/2020 07:04 PM 07/26/2020 07:46 PM 0.000 0.000 0.000 0.000 0.000 Not Reported Not Reported
08/01/2020 07:38 PM 78.44 53.96 27.86 84.92 44.24 15.0 Not Reported 2.91 W 0.89 W 4.92 SW No 0.000 No Precipitation 07/26/2020 07:04 PM 07/26/2020 07:46 PM 0.000 0.000 0.000 0.000 0.000 Not Reported Not Reported
08/01/2020 07:53 PM 76.82 54.32 31.10 84.92 44.24 18.0 Not Reported 3.13 SW 2.68 SW 4.47 SW No 0.000 No Precipitation 07/26/2020 07:04 PM 07/26/2020 07:46 PM 0.000 0.000 0.000 0.000 0.000 Not Reported Not Reported
08/01/2020 08:08 PM 75.74 54.50 33.44 84.92 44.24 21.0 Not Reported 2.68 W 2.24 SW 4.03 W No 0.000 No Precipitation 07/26/2020 07:04 PM 07/26/2020 07:46 PM 0.000 0.000 0.000 0.000 0.000 Not Reported Not Reported
08/01/2020 08:23 PM 75.20 54.50 34.52 84.92 44.24 22.0 Not Reported 3.80 SW 0.67 SE 4.47 NW No 0.000 No Precipitation 07/26/2020 07:04 PM 07/26/2020 07:46 PM 0.000 0.000 0.000 0.000 0.000 Not Reported Not Reported
08/01/2020 08:38 PM 73.76 54.14 35.06 84.92 44.24 24.0 Not Reported 2.24 SW 1.79 SW 3.58 W No 0.000 No Precipitation 07/26/2020 07:04 PM 07/26/2020 07:46 PM 0.000 0.000 0.000 0.000 0.000 Not Reported Not Reported
08/01/2020 08:53 PM 72.68 53.78 35.60 84.92 44.24 25.0 Not Reported 3.58 SW 1.34 W 4.70 SW No 0.000 No Precipitation 07/26/2020 07:04 PM 07/26/2020 07:46 PM 0.000 0.000 0.000 0.000 0.000 Not Reported Not Reported
08/01/2020 09:08 PM 72.14 53.60 35.42 84.92 44.24 26.0 Not Reported 1.34 SW 0.22 SW 4.25 W No 0.000 No Precipitation 07/26/2020 07:04 PM 07/26/2020 07:46 PM 0.000 0.000 0.000 0.000 0.000 Not Reported Not Reported
08/01/2020 09:23 PM 72.32 53.42 34.52 84.92 44.24 24.0 Not Reported 5.14 SW 4.70 W 7.16 SW No 0.000 No Precipitation 07/26/2020 07:04 PM 07/26/2020 07:46 PM 0.000 0.000 0.000 0.000 0.000 Not Reported Not Reported
08/01/2020 09:38 PM 70.70 52.52 34.52 84.92 44.24 26.0 Not Reported 1.34 W 1.57 SE 6.26 SW No 0.000 No Precipitation 07/26/2020 07:04 PM 07/26/2020 07:46 PM 0.000 0.000 0.000 0.000 0.000 Not Reported Not Reported
08/01/2020 09:53 PM 68.90 52.34 35.78 84.92 44.24 29.0 Not Reported 0.89 SW 0.89 S 2.24 W No 0.000 No Precipitation 07/26/2020 07:04 PM 07/26/2020 07:46 PM 0.000 0.000 0.000 0.000 0.000 Not Reported Not Reported
08/01/2020 10:08 PM 66.38 51.26 35.96 84.92 44.24 32.0 Not Reported 0.45 W 0.67 W 1.57 S No 0.000 No Precipitation 07/26/2020 07:04 PM 07/26/2020 07:46 PM 0.000 0.000 0.000 0.000 0.000 Not Reported Not Reported
08/01/2020 10:23 PM 65.66 50.72 35.60 84.92 44.24 32.0 Not Reported 1.12 SW 2.46 W 2.46 W No 0.000 No Precipitation 07/26/2020 07:04 PM 07/26/2020 07:46 PM 0.000 0.000 0.000 0.000 0.000 Not Reported Not Reported
08/01/2020 10:38 PM 68.00 51.44 34.70 84.92 44.24 29.0 Not Reported 2.01 SW 1.57 S 5.59 SW No 0.000 No Precipitation 07/26/2020 07:04 PM 07/26/2020 07:46 PM 0.000 0.000 0.000 0.000 0.000 Not Reported Not Reported
08/01/2020 10:53 PM 66.92 50.72 34.52 84.92 44.24 29.0 Not Reported 0.22 SW 3.58 W 3.80 SW No 0.000 No Precipitation 07/26/2020 07:04 PM 07/26/2020 07:46 PM 0.000 0.000 0.000 0.000 0.000 Not Reported Not Reported
08/01/2020 11:08 PM 65.84 50.90 35.42 84.92 44.24 32.0 Not Reported 1.12 SW 0.22 W 3.80 SW No 0.000 No Precipitation 07/26/2020 07:04 PM 07/26/2020 07:46 PM 0.000 0.000 0.000 0.000 0.000 Not Reported Not Reported
08/01/2020 11:23 PM 63.68 49.64 35.24 84.92 44.24 34.0 Not Reported 0.22 SW 0.89 SW 2.24 S No 0.000 No Precipitation 07/26/2020 07:04 PM 07/26/2020 07:46 PM 0.000 0.000 0.000 0.000 0.000 Not Reported Not Reported
08/01/2020 11:39 PM 61.34 48.56 35.24 84.92 44.24 37.0 Not Reported 0.45 SE 0.00 NE 3.80 SW No 0.000 No Precipitation 07/26/2020 07:04 PM 07/26/2020 07:46 PM 0.000 0.000 0.000 0.000 0.000 Not Reported Not Reported
08/01/2020 11:53 PM 60.80 48.56 35.42 84.92 44.24 38.0 Not Reported 0.22 SW 0.89 NW 2.24 E No 0.000 No Precipitation 07/26/2020 07:04 PM 07/26/2020 07:46 PM 0.000 0.000 0.000 0.000 0.000 Not Reported Not Reported